sensor_id;sensor_type;location;lat;lon;timestamp;pressure;altitude;pressure_sealevel;temperature;humidity
21203;BME280;10759;51.982;9.232;2024-02-21T00:01:24;100934.41;;;8.32;100.00
21203;BME280;10759;51.982;9.232;2024-02-21T00:03:52;100913.53;;;8.08;100.00
21203;BME280;10759;51.982;9.232;2024-02-21T00:06:20;100937.88;;;8.37;100.00
21203;BME280;10759;51.982;9.232;2024-02-21T00:08:49;100932.72;;;8.27;100.00
21203;BME280;10759;51.982;9.232;2024-02-21T00:11:17;100928.31;;;8.26;100.00
21203;BME280;10759;51.982;9.232;2024-02-21T00:13:45;100924.06;;;8.14;100.00
21203;BME280;10759;51.982;9.232;2024-02-21T00:16:13;100923.91;;;8.22;100.00
21203;BME280;10759;51.982;9.232;2024-02-21T00:18:43;100923.13;;;8.18;100.00
21203;BME280;10759;51.982;9.232;2024-02-21T00:21:11;100870.22;;;7.93;100.00
21203;BME280;10759;51.982;9.232;2024-02-21T00:23:44;100916.84;;;8.21;100.00
21203;BME280;10759;51.982;9.232;2024-02-21T00:26:14;100916.06;;;8.14;100.00
21203;BME280;10759;51.982;9.232;2024-02-21T00:28:43;100894.00;;;8.06;100.00
21203;BME280;10759;51.982;9.232;2024-02-21T00:31:11;100904.50;;;8.15;100.00
21203;BME280;10759;51.982;9.232;2024-02-21T00:33:39;100881.53;;;8.05;100.00
21203;BME280;10759;51.982;9.232;2024-02-21T00:36:07;100895.59;;;8.14;100.00
21203;BME280;10759;51.982;9.232;2024-02-21T00:38:35;100893.03;;;8.10;100.00
21203;BME280;10759;51.982;9.232;2024-02-21T00:41:03;100892.25;;;8.03;100.00
21203;BME280;10759;51.982;9.232;2024-02-21T00:43:32;100883.31;;;8.06;100.00
21203;BME280;10759;51.982;9.232;2024-02-21T00:46:00;100877.91;;;8.09;100.00
21203;BME280;10759;51.982;9.232;2024-02-21T00:48:29;100870.84;;;8.06;100.00
21203;BME280;10759;51.982;9.232;2024-02-21T00:50:57;100861.34;;;7.91;100.00
21203;BME280;10759;51.982;9.232;2024-02-21T00:53:25;100841.03;;;7.84;100.00
21203;BME280;10759;51.982;9.232;2024-02-21T00:55:53;100856.72;;;8.00;100.00
21203;BME280;10759;51.982;9.232;2024-02-21T00:58:22;100855.94;;;7.94;100.00
21203;BME280;10759;51.982;9.232;2024-02-21T01:00:52;100857.59;;;8.02;100.00
21203;BME280;10759;51.982;9.232;2024-02-21T01:03:21;100840.78;;;7.96;100.00
21203;BME280;10759;51.982;9.232;2024-02-21T01:05:49;100846.06;;;8.00;100.00
21203;BME280;10759;51.982;9.232;2024-02-21T01:08:17;100837.94;;;8.06;100.00
21203;BME280;10759;51.982;9.232;2024-02-21T01:10:45;100838.03;;;8.01;100.00
21203;BME280;10759;51.982;9.232;2024-02-21T01:13:13;100840.59;;;8.06;100.00
21203;BME280;10759;51.982;9.232;2024-02-21T01:15:42;100845.03;;;8.07;100.00
21203;BME280;10759;51.982;9.232;2024-02-21T01:18:11;100858.13;;;8.19;100.00
21203;BME280;10759;51.982;9.232;2024-02-21T01:20:39;100854.59;;;8.17;100.00
21203;BME280;10759;51.982;9.232;2024-02-21T01:23:07;100851.00;;;8.20;100.00
21203;BME280;10759;51.982;9.232;2024-02-21T01:25:35;100842.94;;;8.23;100.00
21203;BME280;10759;51.982;9.232;2024-02-21T01:28:03;100830.53;;;8.18;100.00
21203;BME280;10759;51.982;9.232;2024-02-21T01:30:31;100830.53;;;8.18;100.00
21203;BME280;10759;51.982;9.232;2024-02-21T01:33:00;100824.25;;;8.23;100.00
21203;BME280;10759;51.982;9.232;2024-02-21T01:35:29;100819.00;;;8.18;100.00
21203;BME280;10759;51.982;9.232;2024-02-21T01:37:57;100829.41;;;8.30;100.00
21203;BME280;10759;51.982;9.232;2024-02-21T01:40:25;100806.63;;;8.14;100.00
21203;BME280;10759;51.982;9.232;2024-02-21T01:42:55;100822.19;;;8.35;100.00
21203;BME280;10759;51.982;9.232;2024-02-21T01:45:23;100821.50;;;8.26;100.00
21203;BME280;10759;51.982;9.232;2024-02-21T01:47:51;100830.28;;;8.32;100.00
21203;BME280;10759;51.982;9.232;2024-02-21T01:50:20;100843.47;;;8.38;100.00
21203;BME280;10759;51.982;9.232;2024-02-21T01:52:51;100834.50;;;8.44;100.00
21203;BME280;10759;51.982;9.232;2024-02-21T01:55:19;100831.03;;;8.37;100.00
21203;BME280;10759;51.982;9.232;2024-02-21T01:57:47;100816.91;;;8.32;100.00
21203;BME280;10759;51.982;9.232;2024-02-21T02:00:16;100813.09;;;8.46;100.00
21203;BME280;10759;51.982;9.232;2024-02-21T02:02:45;100811.56;;;8.32;100.00
21203;BME280;10759;51.982;9.232;2024-02-21T02:05:14;100741.13;;;7.98;100.00
21203;BME280;10759;51.982;9.232;2024-02-21T02:07:43;100810.75;;;8.29;100.00
21203;BME280;10759;51.982;9.232;2024-02-21T02:10:13;100815.09;;;8.34;100.00
21203;BME280;10759;51.982;9.232;2024-02-21T02:12:41;100798.69;;;8.51;100.00
21203;BME280;10759;51.982;9.232;2024-02-21T02:15:09;100787.66;;;8.26;100.00
21203;BME280;10759;51.982;9.232;2024-02-21T02:17:37;100807.09;;;8.34;100.00
21203;BME280;10759;51.982;9.232;2024-02-21T02:20:07;100798.88;;;8.44;100.00
21203;BME280;10759;51.982;9.232;2024-02-21T02:22:36;100781.34;;;8.30;100.00
21203;BME280;10759;51.982;9.232;2024-02-21T02:25:07;100788.66;;;8.22;100.00
21203;BME280;10759;51.982;9.232;2024-02-21T02:27:41;100783.09;;;8.31;100.00
21203;BME280;10759;51.982;9.232;2024-02-21T02:30:11;100780.56;;;8.25;100.00
21203;BME280;10759;51.982;9.232;2024-02-21T02:32:39;100766.03;;;8.40;100.00
21203;BME280;10759;51.982;9.232;2024-02-21T02:35:10;100771.47;;;8.34;100.00
21203;BME280;10759;51.982;9.232;2024-02-21T02:37:40;100757.13;;;8.38;100.00
21203;BME280;10759;51.982;9.232;2024-02-21T02:40:10;100767.59;;;8.49;100.00
21203;BME280;10759;51.982;9.232;2024-02-21T02:42:39;100778.59;;;8.33;100.00
21203;BME280;10759;51.982;9.232;2024-02-21T02:45:08;100782.19;;;8.32;100.00
21203;BME280;10759;51.982;9.232;2024-02-21T02:47:36;100770.75;;;8.27;100.00
21203;BME280;10759;51.982;9.232;2024-02-21T02:50:05;100765.16;;;8.36;100.00
21203;BME280;10759;51.982;9.232;2024-02-21T02:52:33;100764.94;;;8.49;100.00
21203;BME280;10759;51.982;9.232;2024-02-21T02:55:01;100764.13;;;8.45;100.00
21203;BME280;10759;51.982;9.232;2024-02-21T02:57:31;100752.69;;;8.40;100.00
21203;BME280;10759;51.982;9.232;2024-02-21T02:59:59;100764.09;;;8.47;100.00
21203;BME280;10759;51.982;9.232;2024-02-21T03:02:27;100756.09;;;8.47;100.00
21203;BME280;10759;51.982;9.232;2024-02-21T03:04:55;100747.31;;;8.38;100.00
21203;BME280;10759;51.982;9.232;2024-02-21T03:07:24;100752.56;;;8.45;100.00
21203;BME280;10759;51.982;9.232;2024-02-21T03:09:52;100737.50;;;8.39;100.00
21203;BME280;10759;51.982;9.232;2024-02-21T03:12:21;100736.81;;;8.32;100.00
21203;BME280;10759;51.982;9.232;2024-02-21T03:14:55;100730.63;;;8.29;100.00
21203;BME280;10759;51.982;9.232;2024-02-21T03:17:24;100725.25;;;8.32;100.00
21203;BME280;10759;51.982;9.232;2024-02-21T03:19:53;100715.50;;;8.29;100.00
21203;BME280;10759;51.982;9.232;2024-02-21T03:22:22;100715.38;;;8.34;100.00
21203;BME280;10759;51.982;9.232;2024-02-21T03:24:50;100709.25;;;8.30;100.00
21203;BME280;10759;51.982;9.232;2024-02-21T03:27:18;100709.16;;;8.33;100.00
21203;BME280;10759;51.982;9.232;2024-02-21T03:29:46;100702.09;;;8.32;100.00
21203;BME280;10759;51.982;9.232;2024-02-21T03:32:15;100693.34;;;8.24;100.00
21203;BME280;10759;51.982;9.232;2024-02-21T03:34:43;100684.56;;;8.21;100.00
21203;BME280;10759;51.982;9.232;2024-02-21T03:37:11;100661.69;;;8.09;100.00
21203;BME280;10759;51.982;9.232;2024-02-21T03:39:41;100663.22;;;8.19;100.00
21203;BME280;10759;51.982;9.232;2024-02-21T03:42:09;100597.59;;;7.73;100.00
21203;BME280;10759;51.982;9.232;2024-02-21T03:44:37;100671.22;;;8.19;100.00
21203;BME280;10759;51.982;9.232;2024-02-21T03:47:05;100662.88;;;8.34;100.00
21203;BME280;10759;51.982;9.232;2024-02-21T03:49:38;100671.72;;;8.36;100.00
21203;BME280;10759;51.982;9.232;2024-02-21T03:52:06;100681.59;;;8.33;100.00
21203;BME280;10759;51.982;9.232;2024-02-21T03:54:35;100661.16;;;8.32;100.00
21203;BME280;10759;51.982;9.232;2024-02-21T03:57:05;100667.50;;;8.26;100.00
21203;BME280;10759;51.982;9.232;2024-02-21T03:59:33;100668.25;;;8.33;100.00
21203;BME280;10759;51.982;9.232;2024-02-21T04:02:01;100669.03;;;8.40;100.00
21203;BME280;10759;51.982;9.232;2024-02-21T04:04:30;100685.91;;;8.38;100.00
21203;BME280;10759;51.982;9.232;2024-02-21T04:07:00;100681.41;;;8.42;100.00
21203;BME280;10759;51.982;9.232;2024-02-21T04:09:28;100697.38;;;8.44;100.00
21203;BME280;10759;51.982;9.232;2024-02-21T04:11:56;100697.38;;;8.44;100.00
21203;BME280;10759;51.982;9.232;2024-02-21T04:14:24;100706.31;;;8.43;100.00
21203;BME280;10759;51.982;9.232;2024-02-21T04:16:52;100704.69;;;8.35;100.00
21203;BME280;10759;51.982;9.232;2024-02-21T04:19:20;100716.97;;;8.44;100.00
21203;BME280;10759;51.982;9.232;2024-02-21T04:21:48;100709.03;;;8.41;100.00
21203;BME280;10759;51.982;9.232;2024-02-21T04:24:17;100662.06;;;8.31;100.00
21203;BME280;10759;51.982;9.232;2024-02-21T04:26:45;100691.94;;;8.48;100.00
21203;BME280;10759;51.982;9.232;2024-02-21T04:29:13;100702.72;;;8.44;100.00
21203;BME280;10759;51.982;9.232;2024-02-21T04:31:41;100692.00;;;8.47;100.00
21203;BME280;10759;51.982;9.232;2024-02-21T04:34:09;100692.25;;;8.34;100.00
21203;BME280;10759;51.982;9.232;2024-02-21T04:36:37;100700.78;;;8.52;100.00
21203;BME280;10759;51.982;9.232;2024-02-21T04:39:05;100712.16;;;8.58;100.00
21203;BME280;10759;51.982;9.232;2024-02-21T04:41:34;100701.94;;;8.38;100.00
21203;BME280;10759;51.982;9.232;2024-02-21T04:44:02;100693.84;;;8.43;100.00
21203;BME280;10759;51.982;9.232;2024-02-21T04:46:31;100667.50;;;8.26;100.00
21203;BME280;10759;51.982;9.232;2024-02-21T04:48:59;100681.50;;;8.37;100.00
21203;BME280;10759;51.982;9.232;2024-02-21T04:51:27;100695.56;;;8.46;100.00
21203;BME280;10759;51.982;9.232;2024-02-21T04:53:55;100700.81;;;8.49;100.00
21203;BME280;10759;51.982;9.232;2024-02-21T04:56:23;100699.25;;;8.38;100.00
21203;BME280;10759;51.982;9.232;2024-02-21T04:58:53;100692.25;;;8.34;100.00
21203;BME280;10759;51.982;9.232;2024-02-21T05:01:21;100685.91;;;8.40;100.00
21203;BME280;10759;51.982;9.232;2024-02-21T05:03:49;100692.19;;;8.37;100.00
21203;BME280;10759;51.982;9.232;2024-02-21T05:06:17;100694.59;;;8.48;100.00
21203;BME280;10759;51.982;9.232;2024-02-21T05:08:45;100693.72;;;8.48;100.00
21203;BME280;10759;51.982;9.232;2024-02-21T05:11:14;100694.59;;;8.50;100.00
21203;BME280;10759;51.982;9.232;2024-02-21T05:13:42;100697.34;;;8.47;100.00
21203;BME280;10759;51.982;9.232;2024-02-21T05:16:12;100702.50;;;8.53;100.00
21203;BME280;10759;51.982;9.232;2024-02-21T05:18:40;100641.75;;;8.24;100.00
21203;BME280;10759;51.982;9.232;2024-02-21T05:21:09;100709.56;;;8.55;100.00
21203;BME280;10759;51.982;9.232;2024-02-21T05:23:37;100705.28;;;8.50;100.00
21203;BME280;10759;51.982;9.232;2024-02-21T05:26:06;100696.38;;;8.49;100.00
21203;BME280;10759;51.982;9.232;2024-02-21T05:28:34;100685.13;;;8.35;100.00
21203;BME280;10759;51.982;9.232;2024-02-21T05:31:02;100673.06;;;8.17;100.00
21203;BME280;10759;51.982;9.232;2024-02-21T05:33:32;100689.38;;;8.44;100.00
21203;BME280;10759;51.982;9.232;2024-02-21T05:36:00;100675.59;;;8.23;100.00
21203;BME280;10759;51.982;9.232;2024-02-21T05:38:29;100607.09;;;7.85;100.00
21203;BME280;10759;51.982;9.232;2024-02-21T05:40:57;100685.25;;;8.29;100.00
21203;BME280;10759;51.982;9.232;2024-02-21T05:43:25;100686.91;;;8.34;100.00
21203;BME280;10759;51.982;9.232;2024-02-21T05:45:53;100675.22;;;8.38;100.00
21203;BME280;10759;51.982;9.232;2024-02-21T05:48:21;100666.06;;;8.11;100.00
21203;BME280;10759;51.982;9.232;2024-02-21T05:50:51;100668.44;;;8.25;100.00
21203;BME280;10759;51.982;9.232;2024-02-21T05:53:19;100658.34;;;8.40;100.00
21203;BME280;10759;51.982;9.232;2024-02-21T05:55:47;100653.06;;;8.35;100.00
21203;BME280;10759;51.982;9.232;2024-02-21T05:58:15;100652.19;;;8.34;100.00
21203;BME280;10759;51.982;9.232;2024-02-21T06:00:43;100658.44;;;8.33;100.00
21203;BME280;10759;51.982;9.232;2024-02-21T06:03:11;100662.16;;;8.26;100.00
21203;BME280;10759;51.982;9.232;2024-02-21T06:05:39;100654.31;;;8.20;100.00
21203;BME280;10759;51.982;9.232;2024-02-21T06:08:09;100659.75;;;8.15;100.00
21203;BME280;10759;51.982;9.232;2024-02-21T06:10:37;100657.19;;;8.11;100.00
21203;BME280;10759;51.982;9.232;2024-02-21T06:13:05;100653.25;;;8.27;100.00
21203;BME280;10759;51.982;9.232;2024-02-21T06:15:33;100640.50;;;8.01;100.00
21203;BME280;10759;51.982;9.232;2024-02-21T06:18:01;100644.63;;;8.16;100.00
21203;BME280;10759;51.982;9.232;2024-02-21T06:20:29;100571.78;;;7.73;100.00
21203;BME280;10759;51.982;9.232;2024-02-21T06:22:57;100630.91;;;7.92;100.00
21203;BME280;10759;51.982;9.232;2024-02-21T06:25:27;100619.38;;;7.92;100.00
21203;BME280;10759;51.982;9.232;2024-02-21T06:27:55;100636.22;;;7.95;100.00
21203;BME280;10759;51.982;9.232;2024-02-21T06:30:23;100641.47;;;7.99;100.00
21203;BME280;10759;51.982;9.232;2024-02-21T06:32:51;100583.50;;;7.66;100.00
21203;BME280;10759;51.982;9.232;2024-02-21T06:35:19;100641.38;;;8.02;100.00
21203;BME280;10759;51.982;9.232;2024-02-21T06:37:47;100636.88;;;8.05;100.00
21203;BME280;10759;51.982;9.232;2024-02-21T06:40:20;100638.59;;;8.08;100.00
21203;BME280;10759;51.982;9.232;2024-02-21T06:42:50;100628.81;;;8.07;100.00
21203;BME280;10759;51.982;9.232;2024-02-21T06:45:18;100635.19;;;8.00;100.00
21203;BME280;10759;51.982;9.232;2024-02-21T06:47:46;100643.69;;;8.17;100.00
21203;BME280;10759;51.982;9.232;2024-02-21T06:50:15;100643.81;;;8.12;100.00
21203;BME280;10759;51.982;9.232;2024-02-21T06:52:43;100614.81;;;7.97;100.00
21203;BME280;10759;51.982;9.232;2024-02-21T06:55:11;100634.25;;;8.02;100.00
21203;BME280;10759;51.982;9.232;2024-02-21T06:57:39;100627.16;;;8.03;100.00
21203;BME280;10759;51.982;9.232;2024-02-21T07:00:10;100634.41;;;7.96;100.00
21203;BME280;10759;51.982;9.232;2024-02-21T07:02:38;100613.16;;;7.93;100.00
21203;BME280;10759;51.982;9.232;2024-02-21T07:05:07;100613.84;;;8.00;100.00
21203;BME280;10759;51.982;9.232;2024-02-21T07:07:35;100601.34;;;8.02;100.00
21203;BME280;10759;51.982;9.232;2024-02-21T07:10:04;100595.06;;;8.04;100.00
21203;BME280;10759;51.982;9.232;2024-02-21T07:12:32;100567.81;;;7.90;100.00
21203;BME280;10759;51.982;9.232;2024-02-21T07:15:00;100589.72;;;8.04;100.00
21203;BME280;10759;51.982;9.232;2024-02-21T07:17:33;100594.97;;;8.09;100.00
21203;BME280;10759;51.982;9.232;2024-02-21T07:20:01;100550.47;;;7.72;100.00
21203;BME280;10759;51.982;9.232;2024-02-21T07:22:29;100602.00;;;8.13;100.00
21203;BME280;10759;51.982;9.232;2024-02-21T07:24:57;100611.06;;;8.06;100.00
21203;BME280;10759;51.982;9.232;2024-02-21T07:27:28;100612.59;;;8.14;100.00
21203;BME280;10759;51.982;9.232;2024-02-21T07:29:58;100597.78;;;8.03;100.00
21203;BME280;10759;51.982;9.232;2024-02-21T07:32:26;100598.59;;;8.05;100.00
21203;BME280;10759;51.982;9.232;2024-02-21T07:34:55;100594.00;;;8.11;100.00
21203;BME280;10759;51.982;9.232;2024-02-21T07:37:24;100547.22;;;7.96;100.00
21203;BME280;10759;51.982;9.232;2024-02-21T07:39:52;100612.94;;;8.38;100.00
21203;BME280;10759;51.982;9.232;2024-02-21T07:42:20;100612.16;;;8.33;100.00
21203;BME280;10759;51.982;9.232;2024-02-21T07:44:48;100610.22;;;8.41;100.00
21203;BME280;10759;51.982;9.232;2024-02-21T07:47:16;100617.34;;;8.41;100.00
21203;BME280;10759;51.982;9.232;2024-02-21T07:49:45;100617.88;;;8.55;100.00
21203;BME280;10759;51.982;9.232;2024-02-21T07:52:17;100610.00;;;8.49;100.00
21203;BME280;10759;51.982;9.232;2024-02-21T07:54:45;100623.03;;;8.63;100.00
21203;BME280;10759;51.982;9.232;2024-02-21T07:57:13;100610.97;;;8.46;100.00
21203;BME280;10759;51.982;9.232;2024-02-21T07:59:41;100606.53;;;8.47;100.00
21203;BME280;10759;51.982;9.232;2024-02-21T08:02:12;100608.81;;;8.60;100.00
21203;BME280;10759;51.982;9.232;2024-02-21T08:04:41;100597.59;;;8.48;100.00
21203;BME280;10759;51.982;9.232;2024-02-21T08:07:09;100618.41;;;8.69;100.00
21203;BME280;10759;51.982;9.232;2024-02-21T08:09:39;100622.72;;;8.73;100.00
21203;BME280;10759;51.982;9.232;2024-02-21T08:12:07;100611.06;;;8.77;100.00
21203;BME280;10759;51.982;9.232;2024-02-21T08:14:35;100602.09;;;8.78;100.00
21203;BME280;10759;51.982;9.232;2024-02-21T08:17:03;100531.69;;;8.48;100.00
21203;BME280;10759;51.982;9.232;2024-02-21T08:19:31;100606.22;;;8.92;100.00
21203;BME280;10759;51.982;9.232;2024-02-21T08:22:00;100569.28;;;8.73;100.00
21203;BME280;10759;51.982;9.232;2024-02-21T08:24:28;100593.50;;;9.00;100.00
21203;BME280;10759;51.982;9.232;2024-02-21T08:26:57;100606.88;;;9.00;100.00
21203;BME280;10759;51.982;9.232;2024-02-21T08:29:25;100599.59;;;9.05;100.00
21203;BME280;10759;51.982;9.232;2024-02-21T08:31:53;100600.13;;;9.18;100.00
21203;BME280;10759;51.982;9.232;2024-02-21T08:34:21;100568.22;;;9.12;100.00
21203;BME280;10759;51.982;9.232;2024-02-21T08:36:50;100587.41;;;9.26;100.00
21203;BME280;10759;51.982;9.232;2024-02-21T08:39:18;100572.16;;;9.30;100.00
21203;BME280;10759;51.982;9.232;2024-02-21T08:41:46;100567.44;;;9.08;100.00
21203;BME280;10759;51.982;9.232;2024-02-21T08:44:25;100576.03;;;9.19;100.00
21203;BME280;10759;51.982;9.232;2024-02-21T08:46:54;100578.53;;;9.26;100.00
21203;BME280;10759;51.982;9.232;2024-02-21T08:49:23;100567.16;;;9.17;100.00
21203;BME280;10759;51.982;9.232;2024-02-21T08:52:00;100556.09;;;9.30;100.00
21203;BME280;10759;51.982;9.232;2024-02-21T08:54:28;100551.63;;;9.60;100.00
21203;BME280;10759;51.982;9.232;2024-02-21T08:56:56;100542.19;;;9.48;100.00
21203;BME280;10759;51.982;9.232;2024-02-21T08:59:25;100532.97;;;9.57;100.00
21203;BME280;10759;51.982;9.232;2024-02-21T09:01:54;100543.34;;;9.39;100.00
21203;BME280;10759;51.982;9.232;2024-02-21T09:04:22;100531.53;;;9.46;100.00
21203;BME280;10759;51.982;9.232;2024-02-21T09:06:50;100535.03;;;9.49;100.00
21203;BME280;10759;51.982;9.232;2024-02-21T09:09:19;100531.53;;;9.75;100.00
21203;BME280;10759;51.982;9.232;2024-02-21T09:11:47;100536.13;;;9.70;100.00
21203;BME280;10759;51.982;9.232;2024-02-21T09:14:15;100536.91;;;9.75;100.00
21203;BME280;10759;51.982;9.232;2024-02-21T09:16:45;100517.72;;;9.60;99.82
21203;BME280;10759;51.982;9.232;2024-02-21T09:19:15;100519.47;;;9.61;100.00
21203;BME280;10759;51.982;9.232;2024-02-21T09:21:45;100534.25;;;9.73;100.00
21203;BME280;10759;51.982;9.232;2024-02-21T09:24:13;100535.66;;;9.85;100.00
21203;BME280;10759;51.982;9.232;2024-02-21T09:26:41;100537.31;;;9.89;100.00
21203;BME280;10759;51.982;9.232;2024-02-21T09:29:08;100524.13;;;9.83;100.00
21203;BME280;10759;51.982;9.232;2024-02-21T09:31:37;100529.91;;;9.69;100.00
21203;BME280;10759;51.982;9.232;2024-02-21T09:34:06;100523.13;;;9.87;98.93
21203;BME280;10759;51.982;9.232;2024-02-21T09:36:35;100519.53;;;9.86;97.51
21203;BME280;10759;51.982;9.232;2024-02-21T09:39:03;100506.00;;;9.91;100.00
21203;BME280;10759;51.982;9.232;2024-02-21T09:41:31;100523.91;;;9.89;100.00
21203;BME280;10759;51.982;9.232;2024-02-21T09:44:02;100471.00;;;9.71;96.61
21203;BME280;10759;51.982;9.232;2024-02-21T09:46:37;100518.41;;;9.94;98.69
21203;BME280;10759;51.982;9.232;2024-02-21T09:49:23;100523.50;;;10.01;98.33
21203;BME280;10759;51.982;9.232;2024-02-21T09:51:55;100523.91;;;9.89;99.49
21203;BME280;10759;51.982;9.232;2024-02-21T09:54:25;100522.19;;;10.15;100.00
21203;BME280;10759;51.982;9.232;2024-02-21T09:56:53;100524.97;;;10.12;97.34
21203;BME280;10759;51.982;9.232;2024-02-21T09:59:22;100522.34;;;10.10;95.82
21203;BME280;10759;51.982;9.232;2024-02-21T10:01:51;100519.28;;;10.21;94.30
21203;BME280;10759;51.982;9.232;2024-02-21T10:04:21;100519.97;;;10.29;94.56
21203;BME280;10759;51.982;9.232;2024-02-21T10:06:50;100478.41;;;10.16;91.42
21203;BME280;10759;51.982;9.232;2024-02-21T10:09:22;100507.56;;;10.25;93.85
21203;BME280;10759;51.982;9.232;2024-02-21T10:11:51;100508.31;;;10.30;90.23
21203;BME280;10759;51.982;9.232;2024-02-21T10:14:19;100465.72;;;10.21;89.95
21203;BME280;10759;51.982;9.232;2024-02-21T10:16:48;100484.16;;;10.31;92.88
21203;BME280;10759;51.982;9.232;2024-02-21T10:19:17;100488.69;;;10.55;92.11
21203;BME280;10759;51.982;9.232;2024-02-21T10:22:01;100438.66;;;10.30;90.73
21203;BME280;10759;51.982;9.232;2024-02-21T10:24:31;100479.78;;;10.54;92.32
21203;BME280;10759;51.982;9.232;2024-02-21T10:27:01;100483.25;;;10.31;87.02
21203;BME280;10759;51.982;9.232;2024-02-21T10:29:30;100473.88;;;10.44;87.55
21203;BME280;10759;51.982;9.232;2024-02-21T10:32:06;100470.03;;;10.51;87.68
21203;BME280;10759;51.982;9.232;2024-02-21T10:34:35;100430.59;;;10.31;89.51
21203;BME280;10759;51.982;9.232;2024-02-21T10:37:06;100457.00;;;10.41;86.65
21203;BME280;10759;51.982;9.232;2024-02-21T10:39:36;100452.84;;;10.57;86.31
21203;BME280;10759;51.982;9.232;2024-02-21T10:42:07;100459.09;;;10.58;86.58
21203;BME280;10759;51.982;9.232;2024-02-21T10:44:39;100457.22;;;10.60;86.56
21203;BME280;10759;51.982;9.232;2024-02-21T10:47:09;100445.63;;;10.59;85.50
21203;BME280;10759;51.982;9.232;2024-02-21T10:49:39;100447.69;;;10.76;83.59
21203;BME280;10759;51.982;9.232;2024-02-21T10:52:14;100439.69;;;10.74;81.83
21203;BME280;10759;51.982;9.232;2024-02-21T10:54:44;100448.19;;;10.62;82.52
21203;BME280;10759;51.982;9.232;2024-02-21T10:57:13;100415.06;;;10.41;84.68
21203;BME280;10759;51.982;9.232;2024-02-21T10:59:44;100419.88;;;10.55;86.13
21203;BME280;10759;51.982;9.232;2024-02-21T11:02:12;100431.59;;;10.52;85.30
21203;BME280;10759;51.982;9.232;2024-02-21T11:04:41;100436.56;;;10.38;84.47
21203;BME280;10759;51.982;9.232;2024-02-21T11:07:12;100422.34;;;10.61;87.99
21203;BME280;10759;51.982;9.232;2024-02-21T11:09:50;100407.66;;;10.71;86.35
21203;BME280;10759;51.982;9.232;2024-02-21T11:12:20;100394.66;;;10.61;84.20
21203;BME280;10759;51.982;9.232;2024-02-21T11:14:49;100403.94;;;10.76;88.11
21203;BME280;10759;51.982;9.232;2024-02-21T11:17:17;100401.31;;;10.74;88.12
21203;BME280;10759;51.982;9.232;2024-02-21T11:19:45;100404.00;;;10.74;84.21
21203;BME280;10759;51.982;9.232;2024-02-21T11:22:16;100378.56;;;10.61;85.99
21203;BME280;10759;51.982;9.232;2024-02-21T11:24:45;100381.59;;;10.75;88.03
21203;BME280;10759;51.982;9.232;2024-02-21T11:27:14;100356.09;;;10.88;87.37
21203;BME280;10759;51.982;9.232;2024-02-21T11:29:43;100350.09;;;10.82;89.12
21203;BME280;10759;51.982;9.232;2024-02-21T11:32:13;100361.44;;;10.88;88.22
21203;BME280;10759;51.982;9.232;2024-02-21T11:34:53;100349.66;;;10.92;89.87
21203;BME280;10759;51.982;9.232;2024-02-21T11:37:24;100345.84;;;10.76;86.11
21203;BME280;10759;51.982;9.232;2024-02-21T11:39:54;100352.03;;;10.78;86.09
21203;BME280;10759;51.982;9.232;2024-02-21T11:42:22;100353.31;;;10.90;86.68
21203;BME280;10759;51.982;9.232;2024-02-21T11:44:52;100339.25;;;11.07;83.55
21203;BME280;10759;51.982;9.232;2024-02-21T11:47:23;100339.81;;;11.15;87.44
21203;BME280;10759;51.982;9.232;2024-02-21T11:49:52;100337.16;;;11.15;86.56
21203;BME280;10759;51.982;9.232;2024-02-21T11:52:24;100317.19;;;11.00;85.92
21203;BME280;10759;51.982;9.232;2024-02-21T11:54:53;100317.88;;;11.05;83.12
21203;BME280;10759;51.982;9.232;2024-02-21T11:57:24;100308.19;;;11.01;83.60
21203;BME280;10759;51.982;9.232;2024-02-21T11:59:52;100288.88;;;11.15;81.41
21203;BME280;10759;51.982;9.232;2024-02-21T12:02:26;100278.13;;;11.15;81.52
21203;BME280;10759;51.982;9.232;2024-02-21T12:04:55;100287.97;;;11.14;84.01
21203;BME280;10759;51.982;9.232;2024-02-21T12:07:25;100293.16;;;11.19;85.48
21203;BME280;10759;51.982;9.232;2024-02-21T12:09:58;100283.88;;;11.06;84.19
21203;BME280;10759;51.982;9.232;2024-02-21T12:12:27;100293.16;;;11.19;82.00
21203;BME280;10759;51.982;9.232;2024-02-21T12:14:56;100292.66;;;11.09;82.99
21203;BME280;10759;51.982;9.232;2024-02-21T12:17:24;100249.53;;;10.71;83.42
21203;BME280;10759;51.982;9.232;2024-02-21T12:19:52;100276.97;;;10.78;83.25
21203;BME280;10759;51.982;9.232;2024-02-21T12:22:20;100268.97;;;10.99;85.26
21203;BME280;10759;51.982;9.232;2024-02-21T12:24:50;100265.78;;;11.11;82.60
21203;BME280;10759;51.982;9.232;2024-02-21T12:27:18;100263.63;;;11.19;81.59
21203;BME280;10759;51.982;9.232;2024-02-21T12:29:46;100262.97;;;11.14;86.06
21203;BME280;10759;51.982;9.232;2024-02-21T12:32:14;100256.75;;;11.13;84.16
21203;BME280;10759;51.982;9.232;2024-02-21T12:34:42;100246.69;;;11.18;84.14
21203;BME280;10759;51.982;9.232;2024-02-21T12:37:21;100249.75;;;10.87;84.92
21203;BME280;10759;51.982;9.232;2024-02-21T12:39:51;100255.03;;;10.90;85.28
21203;BME280;10759;51.982;9.232;2024-02-21T12:42:19;100236.56;;;10.83;86.07
21203;BME280;10759;51.982;9.232;2024-02-21T12:44:47;100240.03;;;10.85;86.58
21203;BME280;10759;51.982;9.232;2024-02-21T12:47:16;100228.41;;;10.86;86.30
21203;BME280;10759;51.982;9.232;2024-02-21T12:49:46;100236.22;;;11.12;87.06
21203;BME280;10759;51.982;9.232;2024-02-21T12:52:14;100240.97;;;11.06;85.61
21203;BME280;10759;51.982;9.232;2024-02-21T12:54:43;100150.56;;;10.67;86.87
21203;BME280;10759;51.982;9.232;2024-02-21T12:57:12;100234.47;;;11.11;85.79
21203;BME280;10759;51.982;9.232;2024-02-21T12:59:40;100217.31;;;11.15;86.50